Time;durP1;ratioP1;P1;durP2;ratioP2;P2;SDS_P1;SDS_P2;PMS_P1;PMS_P2;Temp;Humidity;BMP_temperature;BMP_pressure;BME280_temperature;BME280_humidity;BME280_pressure;Samples;Min_cycle;Max_cycle;Signal;HPM_P1;HPM_P2
2021/06/14 00:00:11;;;;;;;3.87;3.47;;;10.00;1.40;;;11.51;87.73;96140.92;645940;216;31581;-71
2021/06/14 00:02:53;;;;;;;4.17;3.23;;;10.10;1.40;;;11.44;88.62;96136.24;618254;226;31956;-70
2021/06/14 00:05:37;;;;;;;5.47;3.10;;;10.00;1.40;;;11.39;87.87;96136.09;619494;225;32004;-70
2021/06/14 00:08:22;;;;;;;3.70;3.40;;;9.80;1.40;;;11.35;89.26;96134.25;646934;212;31598;-70
2021/06/14 00:13:38;;;;;;;4.03;3.30;;;9.80;1.40;;;11.31;86.71;96137.31;647743;216;32107;-70
2021/06/14 00:16:20;;;;;;;4.00;3.60;;;9.70;1.40;;;11.19;89.12;96128.35;646673;212;31594;-70
2021/06/14 00:20:21;;;;;;;4.03;3.15;;;9.60;1.40;;;11.10;89.93;96127.79;646344;216;31629;-69
2021/06/14 00:23:04;;;;;;;3.40;2.97;;;9.60;1.40;;;11.20;88.65;96129.64;647389;216;31596;-71
2021/06/14 00:25:45;;;;;;;4.50;3.30;;;9.50;1.40;;;11.20;87.73;96130.56;645591;216;31653;-70
2021/06/14 00:28:27;;;;;;;4.07;3.27;;;9.50;1.40;;;11.16;89.87;96130.56;647581;212;31602;-71
2021/06/14 00:31:12;;;;;;;3.80;3.47;;;9.50;1.40;;;11.20;87.90;96130.40;646808;216;31590;-70
2021/06/14 00:35:51;;;;;;;4.18;3.22;;;9.40;1.40;;;11.18;86.68;96125.33;646807;212;31645;-70
2021/06/14 00:38:33;;;;;;;3.30;2.90;;;9.40;1.40;;;11.10;88.04;96120.73;619629;226;31941;-69
2021/06/14 00:41:18;;;;;;;3.40;3.10;;;9.40;1.40;;;11.03;88.11;96118.81;647105;216;31661;-77
2021/06/14 00:44:05;;;;;;;3.60;3.30;;;9.30;1.40;;;10.83;91.06;96119.47;647051;216;32252;-71
2021/06/14 00:46:47;;;;;;;4.20;3.37;;;9.20;1.40;;;10.92;88.41;96117.23;647415;212;31839;-71
2021/06/14 00:49:28;;;;;;;4.90;3.20;;;9.10;1.40;;;10.81;91.29;96116.13;645862;216;31871;-70
2021/06/14 00:52:10;;;;;;;4.85;3.20;;;9.00;1.40;;;10.68;92.07;96117.72;646989;216;35587;-70
2021/06/14 00:54:52;;;;;;;3.20;2.90;;;8.80;1.40;;;10.40;94.74;96116.66;646568;216;31724;-71
2021/06/14 00:57:33;;;;;;;3.35;2.90;;;8.80;1.40;;;10.18;96.60;96111.95;645440;212;32189;-70
2021/06/14 01:00:19;;;;;;;4.10;3.10;;;8.70;1.40;;;10.34;92.90;96110.55;646596;212;31603;-69
2021/06/14 01:03:01;;;;;;;3.37;2.90;;;8.60;1.40;;;10.23;96.48;96107.14;646080;212;31697;-70
2021/06/14 01:05:45;;;;;;;5.43;3.30;;;8.70;1.40;;;10.17;97.01;96106.11;646166;216;32371;-70
2021/06/14 01:08:27;;;;;;;3.42;2.75;;;8.60;1.40;;;10.10;97.05;96104.12;646161;212;31777;-70
2021/06/14 01:11:30;;;;;;;3.30;2.93;;;8.50;1.40;;;10.16;95.41;96102.53;646837;216;31580;-71
2021/06/14 01:17:10;;;;;;;3.50;3.20;;;8.50;1.40;;;9.93;100.00;96099.36;646469;212;31665;-70
2021/06/14 01:20:20;;;;;;;3.83;3.53;;;8.50;1.40;;;10.00;100.00;96096.05;646644;212;31605;-70
2021/06/14 01:23:05;;;;;;;6.10;3.30;;;8.60;1.40;;;9.92;99.45;96094.77;646374;216;31711;-71
2021/06/14 01:25:51;;;;;;;4.73;4.00;;;8.50;1.40;;;9.89;99.30;96093.01;646887;212;31823;-71
2021/06/14 01:28:33;;;;;;;3.40;3.10;;;8.40;1.40;;;9.90;100.00;96094.56;647055;216;31609;-70
2021/06/14 01:31:17;;;;;;;3.53;3.23;;;8.40;1.40;;;9.91;99.14;96088.45;646709;212;31605;-71
2021/06/14 01:35:51;;;;;;;4.35;3.60;;;8.30;1.40;;;9.92;100.00;96084.27;645627;216;31722;-70
2021/06/14 01:38:35;;;;;;;3.93;3.40;;;8.50;1.40;;;9.94;98.89;96082.13;646626;212;31616;-69
2021/06/14 01:41:17;;;;;;;3.93;3.30;;;8.40;1.40;;;9.96;98.42;96078.75;646733;216;31634;-70
2021/06/14 01:43:59;;;;;;;3.70;3.40;;;8.40;1.40;;;10.12;96.49;96077.16;645588;213;31618;-70
2021/06/14 01:46:40;;;;;;;3.93;3.53;;;8.40;1.40;;;10.03;97.51;96068.18;646161;212;31702;-70
2021/06/14 01:49:22;;;;;;;3.55;3.25;;;8.30;1.40;;;9.92;98.10;96071.64;646904;212;31691;-70
2021/06/14 01:52:04;;;;;;;3.90;3.60;;;8.20;1.40;;;9.85;99.01;96070.67;646156;216;31935;-70
2021/06/14 01:54:46;;;;;;;3.90;3.60;;;8.20;1.40;;;9.82;97.87;96069.16;645978;212;31630;-70
2021/06/14 01:57:28;;;;;;;4.53;3.60;;;8.10;1.40;;;9.79;97.76;96063.72;645455;216;31598;-70
2021/06/14 02:00:10;;;;;;;4.17;3.77;;;8.00;1.40;;;9.79;98.99;96062.30;646867;216;31866;-70
2021/06/14 02:02:52;;;;;;;5.28;3.80;;;8.10;1.40;;;9.82;100.00;96068.66;646829;212;42212;-70
2021/06/14 02:05:34;;;;;;;3.53;3.17;;;8.30;1.40;;;9.95;98.78;96061.31;647286;216;31598;-69
2021/06/14 02:08:15;;;;;;;3.70;3.10;;;8.30;1.40;;;9.86;98.41;96057.17;645375;216;32162;-70
2021/06/14 02:10:57;;;;;;;4.32;3.30;;;8.10;1.40;;;9.68;99.39;96053.90;646770;212;31601;-71
2021/06/14 02:13:38;;;;;;;3.93;3.23;;;8.00;1.40;;;9.65;100.00;96047.61;618201;222;32546;-70
2021/06/14 02:16:20;;;;;;;4.03;3.30;;;8.00;1.40;;;9.57;99.75;96043.63;646880;212;31570;-70
2021/06/14 02:19:02;;;;;;;3.37;3.12;;;7.80;1.40;;;9.43;100.00;96037.16;646859;216;31602;-72
2021/06/14 02:21:43;;;;;;;3.80;3.10;;;7.70;1.40;;;9.30;100.00;96034.33;646862;212;31617;-70
2021/06/14 02:24:25;;;;;;;3.80;3.40;;;7.70;1.40;;;9.25;100.00;96037.09;645455;212;31562;-70
2021/06/14 02:27:07;;;;;;;3.80;3.40;;;7.70;1.40;;;9.12;100.00;96041.20;646814;212;31580;-70
2021/06/14 02:29:49;;;;;;;4.15;3.75;;;7.50;1.40;;;9.09;100.00;96043.08;646164;212;31651;-69
2021/06/14 02:32:31;;;;;;;4.00;3.30;;;7.60;1.40;;;9.06;100.00;96039.20;646422;216;33048;-70
2021/06/14 02:35:51;;;;;;;3.92;3.53;;;7.50;1.40;;;8.95;100.00;96038.41;647232;216;31658;-70
2021/06/14 02:38:33;;;;;;;4.00;3.60;;;7.50;1.40;;;8.98;100.00;96040.13;645998;216;31842;-70
2021/06/14 02:41:14;;;;;;;4.13;3.67;;;7.40;1.40;;;8.94;100.00;96038.25;646034;212;31585;-70
2021/06/14 02:43:56;;;;;;;6.03;3.80;;;7.40;1.40;;;8.94;100.00;96036.52;647685;212;32202;-70
2021/06/14 02:46:41;;;;;;;3.90;3.47;;;7.40;1.40;;;8.84;100.00;96037.09;646054;216;31615;-70
2021/06/14 02:49:22;;;;;;;4.20;3.80;;;7.50;1.40;;;9.04;100.00;96038.46;646896;212;32113;-71
2021/06/14 02:52:04;;;;;;;4.28;3.87;;;7.60;1.40;;;8.97;100.00;96036.83;646680;212;32137;-70
2021/06/14 02:54:55;;;;;;;3.50;3.20;;;7.50;1.40;;;8.94;100.00;96029.11;647256;216;42627;-70
2021/06/14 02:57:40;;;;;;;3.70;3.40;;;7.40;1.40;;;8.90;100.00;96027.05;647493;216;31554;-72
2021/06/14 03:00:21;;;;;;;3.50;3.20;;;7.30;1.40;;;8.85;100.00;96024.48;645887;216;31776;-69
2021/06/14 03:03:03;;;;;;;3.90;3.60;;;7.20;1.40;;;8.89;100.00;96023.64;645907;216;31590;-70
2021/06/14 03:05:45;;;;;;;4.65;4.07;;;7.30;1.40;;;8.87;100.00;96027.12;647848;212;42208;-72
2021/06/14 03:08:26;;;;;;;4.00;3.60;;;7.40;1.40;;;8.90;100.00;96016.61;646344;212;31604;-70
2021/06/14 03:11:08;;;;;;;4.20;3.80;;;7.40;1.40;;;8.95;100.00;96023.53;647515;212;31560;-71
2021/06/14 03:13:52;;;;;;;3.90;3.60;;;7.50;1.40;;;8.92;100.00;96024.50;646328;216;31614;-71
2021/06/14 03:16:36;;;;;;;4.40;3.62;;;7.50;1.40;;;8.86;100.00;96022.10;645911;216;31694;-71
2021/06/14 03:21:58;;;;;;;5.10;4.60;;;7.30;1.40;;;8.86;100.00;96019.23;647112;216;31983;-70
2021/06/14 03:24:40;;;;;;;4.40;4.00;;;7.30;1.40;;;8.87;100.00;96023.45;618717;222;31933;-70
2021/06/14 03:27:22;;;;;;;4.50;4.10;;;7.20;1.40;;;8.83;100.00;96024.88;647423;212;31677;-70
2021/06/14 03:30:04;;;;;;;4.53;4.12;;;7.30;1.40;;;8.89;100.00;96020.23;646803;216;31718;-71
2021/06/14 03:32:49;;;;;;;4.53;4.13;;;7.40;1.40;;;9.09;100.00;96020.09;645347;216;31614;-70
2021/06/14 03:35:51;;;;;;;5.72;4.25;;;7.60;1.40;;;9.18;100.00;96018.00;646546;216;31647;-69
2021/06/14 03:38:32;;;;;;;6.50;4.60;;;7.70;1.40;;;9.09;100.00;96021.66;647010;212;31600;-70
2021/06/14 03:41:14;;;;;;;5.68;4.75;;;7.50;1.40;;;9.06;100.00;96024.92;646166;212;31559;-70
2021/06/14 03:43:56;;;;;;;4.70;4.30;;;7.40;1.40;;;9.05;100.00;96026.17;647216;212;31804;-71
2021/06/14 03:46:37;;;;;;;5.17;4.67;;;7.40;1.40;;;9.06;100.00;96030.44;646188;212;31607;-71
2021/06/14 03:49:22;;;;;;;5.82;4.57;;;7.50;1.40;;;9.12;100.00;96034.38;646759;216;31595;-70
2021/06/14 03:52:04;;;;;;;5.55;5.00;;;7.50;1.40;;;9.11;100.00;96039.25;645985;212;42461;-70
2021/06/14 03:54:49;;;;;;;5.10;4.63;;;7.60;1.40;;;9.28;100.00;96044.55;646231;216;31709;-70
2021/06/14 03:57:30;;;;;;;6.95;4.68;;;7.70;1.40;;;9.29;100.00;96046.70;619930;222;32036;-70
2021/06/14 04:00:13;;;;;;;5.50;5.00;;;7.80;1.40;;;9.35;100.00;96043.06;619637;226;32823;-70
2021/06/14 04:02:55;;;;;;;5.57;5.05;;;7.90;1.40;;;9.45;100.00;96040.55;645635;216;42186;-70
2021/06/14 04:05:39;;;;;;;5.65;5.15;;;7.90;1.40;;;9.51;100.00;96042.69;647276;212;31794;-70
2021/06/14 04:08:21;;;;;;;6.20;5.60;;;8.00;1.40;;;9.51;100.00;96043.13;645780;212;31584;-70
2021/06/14 04:11:02;;;;;;;6.28;5.15;;;8.00;1.40;;;9.61;100.00;96049.59;646446;216;31606;-70
2021/06/14 04:13:44;;;;;;;6.33;5.83;;;8.10;1.40;;;9.80;100.00;96046.97;645802;212;31559;-70
2021/06/14 04:16:26;;;;;;;7.90;5.00;;;8.20;1.40;;;9.94;100.00;96047.73;646294;216;31603;-71
2021/06/14 04:19:07;;;;;;;6.22;5.50;;;8.30;1.40;;;10.03;100.00;96049.59;646903;212;32227;-72
2021/06/14 04:21:49;;;;;;;7.70;5.73;;;8.30;1.40;;;10.07;100.00;96045.84;645876;212;31687;-70
2021/06/14 04:24:31;;;;;;;5.93;5.32;;;8.40;1.40;;;10.22;99.76;96043.61;646984;216;32258;-71
2021/06/14 04:27:15;;;;;;;6.20;5.43;;;8.50;1.40;;;10.25;99.71;96045.23;646884;212;31573;-72
2021/06/14 04:29:57;;;;;;;6.20;5.60;;;8.50;1.40;;;10.23;100.00;96039.72;646212;216;31641;-70
2021/06/14 04:32:39;;;;;;;6.40;5.80;;;8.60;1.40;;;10.29;100.00;96038.39;645377;212;31567;-74
2021/06/14 04:35:51;;;;;;;6.40;5.80;;;8.90;1.40;;;10.44;100.00;96035.98;645931;216;31569;-71
2021/06/14 04:38:33;;;;;;;6.70;6.00;;;8.90;1.40;;;10.52;100.00;96037.68;646064;216;42825;-71
2021/06/14 04:43:52;;;;;;;6.40;5.80;;;8.90;1.40;;;10.82;99.45;96035.23;646227;216;31617;-70
2021/06/14 04:46:34;;;;;;;7.00;5.90;;;9.10;1.40;;;10.95;98.70;96037.17;645564;216;31710;-69
2021/06/14 04:49:15;;;;;;;7.05;5.90;;;9.20;1.40;;;10.97;99.68;96032.94;646328;212;31767;-70
2021/06/14 04:52:00;;;;;;;9.20;6.90;;;9.50;1.40;;;11.10;99.10;96036.98;644938;216;31588;-71
2021/06/14 04:54:42;;;;;;;6.80;6.10;;;9.70;1.40;;;11.20;98.44;96035.45;646145;212;31710;-70
2021/06/14 04:57:23;;;;;;;7.20;6.40;;;10.10;1.40;;;11.35;97.62;96038.52;646425;216;31582;-71
2021/06/14 05:00:07;;;;;;;6.87;5.73;;;10.10;1.40;;;11.49;97.53;96034.41;644860;216;31892;-71
2021/06/14 05:02:49;;;;;;;7.10;6.40;;;10.20;1.40;;;11.60;97.21;96032.41;646441;212;31870;-70
2021/06/14 05:05:30;;;;;;;7.53;6.28;;;10.40;1.40;;;11.82;96.14;96034.38;645308;216;31676;-70
2021/06/14 05:10:46;;;;;;;7.00;6.30;;;10.50;1.40;;;12.01;98.00;96035.27;647195;212;31672;-71
2021/06/14 05:13:28;;;;;;;8.35;6.43;;;10.60;1.40;;;12.09;97.75;96033.41;646790;212;31571;-71
2021/06/14 05:16:09;;;;;;;9.00;6.90;;;10.80;1.40;;;12.20;97.25;96032.77;609068;222;32268;-69
2021/06/14 05:18:51;;;;;;;8.20;6.40;;;10.80;1.40;;;12.37;96.74;96037.64;646789;216;32142;-71
2021/06/14 05:24:07;;;;;;;7.15;6.55;;;11.10;1.40;;;12.57;95.90;96032.38;646525;212;31604;-70
2021/06/14 05:26:49;;;;;;;7.50;6.20;;;11.30;1.40;;;12.49;96.94;96033.47;646957;212;31790;-70
2021/06/14 05:29:31;;;;;;;6.93;6.20;;;11.40;1.40;;;12.67;95.86;96024.85;646729;212;31613;-71
2021/06/14 05:32:19;;;;;;;8.00;6.40;;;11.50;1.40;;;12.85;92.94;96024.23;645619;216;31692;-70
2021/06/14 05:35:57;;;;;;;8.63;6.72;;;11.70;1.40;;;13.14;91.07;96022.09;646183;216;31758;-71
2021/06/14 05:38:38;;;;;;;6.10;5.60;;;11.90;1.40;;;13.31;89.32;96025.47;646610;216;31564;-71
2021/06/14 05:41:23;;;;;;;6.65;5.95;;;12.10;1.40;;;13.42;88.10;96020.81;646146;212;42257;-71
2021/06/14 05:44:05;;;;;;;7.83;5.23;;;12.40;1.40;;;13.74;85.19;96022.37;617278;222;31872;-71
2021/06/14 05:46:47;;;;;;;6.03;5.13;;;12.60;1.40;;;13.85;83.24;96020.11;645887;216;42180;-70
2021/06/14 05:49:28;;;;;;;5.40;4.90;;;12.80;1.40;;;14.13;85.51;96022.79;646673;212;31739;-71
2021/06/14 05:52:13;;;;;;;7.80;5.40;;;12.80;1.40;;;14.24;83.46;96023.05;644603;216;43284;-70
2021/06/14 05:54:55;;;;;;;5.20;4.70;;;13.00;1.40;;;14.38;79.55;96022.66;649426;216;32599;-70
2021/06/14 05:57:36;;;;;;;6.30;5.03;;;13.30;1.40;;;14.49;79.80;96020.73;647200;212;31842;-71
2021/06/14 06:00:19;;;;;;;5.80;5.20;;;13.50;1.40;;;14.60;81.06;96020.37;645710;212;31953;-70
2021/06/14 06:03:01;;;;;;;5.53;4.80;;;13.50;1.40;;;14.66;81.28;96017.08;645489;216;31603;-70
2021/06/14 06:05:42;;;;;;;5.73;4.80;;;13.60;1.40;;;14.76;80.18;96017.95;645912;216;31719;-70
2021/06/14 06:08:24;;;;;;;6.18;4.50;;;13.80;1.40;;;15.01;79.75;96017.52;631208;222;31912;-71
2021/06/14 06:11:06;;;;;;;5.10;4.60;;;13.90;1.40;;;15.39;78.80;96017.71;647585;216;31554;-70
2021/06/14 06:13:48;;;;;;;6.70;4.90;;;14.20;1.40;;;15.62;73.88;96020.25;645608;216;33330;-71
2021/06/14 06:16:32;;;;;;;5.80;4.15;;;14.60;1.40;;;15.60;74.48;96023.06;646627;216;42218;-70
2021/06/14 06:19:14;;;;;;;6.57;4.50;;;14.80;1.40;;;15.75;71.91;96022.50;646443;216;32462;-70
2021/06/14 06:21:56;;;;;;;6.05;4.37;;;14.90;1.40;;;15.87;71.35;96016.59;647771;216;37047;-71
2021/06/14 06:24:40;;;;;;;7.32;4.30;;;15.00;1.40;;;16.08;73.46;96014.36;647127;212;31743;-72
2021/06/14 06:27:22;;;;;;;5.90;4.25;;;15.10;1.40;;;16.27;70.42;96011.63;620578;222;36172;-70
2021/06/14 06:30:05;;;;;;;6.75;4.25;;;15.40;1.40;;;16.24;69.53;96015.73;645955;212;31585;-71
2021/06/14 06:32:47;;;;;;;6.47;3.60;;;15.30;1.40;;;16.49;71.68;96010.59;644855;215;42334;-70
2021/06/14 06:35:51;;;;;;;4.10;3.70;;;15.40;1.40;;;16.54;67.17;96002.30;646087;212;32419;-70
2021/06/14 06:38:34;;;;;;;3.80;3.50;;;15.80;1.40;;;16.91;68.58;95998.00;644995;212;38303;-72
2021/06/14 06:41:22;;;;;;;4.47;3.70;;;15.70;1.40;;;16.87;64.26;95993.50;645653;212;32641;-71
2021/06/14 06:44:04;;;;;;;5.67;3.40;;;16.00;1.40;;;16.91;66.88;95995.61;647270;212;31862;-71
2021/06/14 06:46:46;;;;;;;7.95;4.78;;;16.10;1.40;;;17.10;67.77;95997.66;645100;216;31585;-71
2021/06/14 06:49:28;;;;;;;3.78;3.45;;;16.00;1.40;;;17.37;67.31;96002.69;645245;216;32262;-71
2021/06/14 06:52:09;;;;;;;6.00;3.40;;;16.30;1.40;;;17.57;65.68;95997.80;645991;216;33152;-70
2021/06/14 06:54:51;;;;;;;5.05;3.40;;;16.60;1.40;;;17.48;62.48;95993.78;644831;212;32268;-71
2021/06/14 06:57:32;;;;;;;4.55;3.40;;;16.60;1.40;;;17.58;62.49;95993.70;646045;214;31561;-70
2021/06/14 07:00:16;;;;;;;3.42;3.00;;;16.70;1.40;;;17.67;61.40;95989.17;648872;216;31855;-70
2021/06/14 07:02:59;;;;;;;4.78;2.90;;;16.80;1.40;;;17.74;61.27;95989.33;644889;216;31605;-70
2021/06/14 07:05:46;;;;;;;7.00;3.90;;;16.80;1.40;;;17.82;62.54;95989.75;645743;212;42568;-72
2021/06/14 07:08:33;;;;;;;5.15;3.50;;;17.00;1.40;;;17.97;61.11;95988.69;618842;226;32546;-70
2021/06/14 07:11:15;;;;;;;3.70;3.30;;;17.00;1.40;;;18.26;64.02;95985.56;645513;216;32202;-69
2021/06/14 07:14:00;;;;;;;3.78;3.40;;;17.20;1.40;;;18.43;59.00;95985.77;644684;216;31549;-69
2021/06/14 07:16:41;;;;;;;4.93;3.83;;;17.50;1.40;;;18.41;58.28;95989.75;647899;216;31568;-70
2021/06/14 07:19:23;;;;;;;5.28;3.30;;;17.50;1.40;;;18.46;59.64;95990.91;647060;212;31579;-71
2021/06/14 07:22:05;;;;;;;6.18;3.20;;;17.50;1.40;;;18.59;60.20;95987.16;646376;216;31576;-70
2021/06/14 07:24:46;;;;;;;4.30;2.90;;;17.50;1.40;;;18.81;59.54;95986.74;645239;216;31603;-71
2021/06/14 07:27:28;;;;;;;4.50;3.30;;;17.80;1.40;;;18.86;57.18;95986.21;646525;212;31619;-70
2021/06/14 07:30:15;;;;;;;4.73;3.47;;;18.00;1.40;;;19.15;58.99;95984.11;646354;216;31588;-71
2021/06/14 07:32:55;;;;;;;3.60;3.30;;;18.10;1.40;;;19.39;56.16;95983.54;646667;216;32231;-70
2021/06/14 07:35:51;;;;;;;5.15;3.30;;;18.40;1.40;;;19.43;56.71;95977.25;646541;216;31595;-70
2021/06/14 07:38:33;;;;;;;3.72;3.12;;;18.40;1.40;;;19.59;55.46;95979.58;647445;212;31565;-70
2021/06/14 07:41:15;;;;;;;4.43;2.62;;;18.50;1.40;;;19.60;56.33;95984.50;648501;216;31554;-71
2021/06/14 07:43:56;;;;;;;4.65;2.90;;;18.60;1.40;;;19.65;54.84;95979.78;647002;212;31559;-71
2021/06/14 07:46:38;;;;;;;5.15;3.00;;;18.60;1.40;;;19.64;54.07;95973.13;650790;212;31779;-70
2021/06/14 07:49:20;;;;;;;5.62;3.17;;;18.60;1.40;;;19.41;55.06;95976.37;649940;216;31599;-70
2021/06/14 07:52:01;;;;;;;4.12;2.85;;;18.40;1.40;;;19.50;53.37;95980.38;647150;212;31555;-71
2021/06/14 07:54:43;;;;;;;4.53;3.20;;;18.40;1.40;;;19.65;53.43;95976.81;648201;212;31798;-70
2021/06/14 07:57:25;;;;;;;5.20;2.75;;;18.60;1.40;;;19.86;55.31;95977.34;648597;216;42741;-70
2021/06/14 08:00:08;;;;;;;5.03;3.28;;;18.90;1.40;;;20.24;55.74;95979.39;646386;216;31568;-70
2021/06/14 08:02:49;;;;;;;7.53;3.72;;;19.30;1.40;;;20.35;54.55;95971.77;648815;212;31613;-70
2021/06/14 08:05:32;;;;;;;4.18;3.10;;;19.40;1.40;;;20.46;56.64;95972.05;648316;212;31602;-71
2021/06/14 08:08:14;;;;;;;4.45;3.60;;;19.50;1.40;;;20.37;53.04;95967.80;618388;222;31891;-71
2021/06/14 08:10:56;;;;;;;4.80;3.40;;;19.40;1.40;;;20.43;55.15;95968.01;620511;222;32054;-71
2021/06/14 08:13:42;;;;;;;6.45;2.80;;;19.50;1.40;;;20.62;54.23;95971.04;647375;212;31528;-70
2021/06/14 08:16:22;;;;;;;6.32;3.85;;;19.60;1.40;;;20.81;54.35;95971.91;646784;212;31562;-70
2021/06/14 08:19:09;;;;;;;4.80;3.10;;;19.80;1.40;;;20.87;56.59;95972.72;646000;216;31561;-71
2021/06/14 08:22:23;;;;;;;3.42;3.12;;;19.90;1.40;;;20.96;53.14;95971.44;646153;216;31599;-71
2021/06/14 08:27:39;;;;;;;5.55;3.92;;;19.70;1.40;;;20.86;54.96;95964.74;647398;212;32265;-70
2021/06/14 08:30:21;;;;;;;5.68;3.58;;;19.90;1.40;;;21.01;56.12;95968.98;648480;216;31568;-71
2021/06/14 08:36:00;;;;;;;5.17;4.20;;;19.90;1.40;;;21.28;54.71;95959.17;647417;216;31548;-71
2021/06/14 08:38:48;;;;;;;4.17;3.30;;;20.00;1.40;;;21.76;51.96;95954.23;616215;224;31976;-71
2021/06/14 08:41:32;;;;;;;4.60;3.42;;;20.60;1.40;;;21.91;50.43;95963.70;647125;212;42192;-71
2021/06/14 08:44:14;;;;;;;4.72;3.40;;;20.70;1.40;;;22.29;55.29;95959.38;649823;212;31929;-71
2021/06/14 08:47:02;;;;;;;4.53;3.20;;;21.10;1.40;;;22.36;52.69;95955.60;647833;216;31597;-71
2021/06/14 08:49:40;;;;;;;4.40;3.72;;;21.10;1.40;;;22.58;53.36;95947.94;647947;212;42433;-71
2021/06/14 08:52:22;;;;;;;4.12;3.60;;;21.30;1.40;;;22.73;49.24;95951.67;647557;212;42194;-70
2021/06/14 08:55:05;;;;;;;5.18;3.35;;;21.50;1.40;;;22.05;49.17;95947.84;648313;216;31568;-71
2021/06/14 08:57:47;;;;;;;4.53;3.45;;;20.80;1.40;;;22.59;51.37;95945.78;644777;213;31617;-72
2021/06/14 09:00:29;;;;;;;5.87;3.70;;;21.20;1.40;;;22.94;53.21;95949.53;645883;216;31596;-72
2021/06/14 09:03:10;;;;;;;5.07;3.42;;;21.80;1.40;;;22.80;48.65;95948.92;651406;216;32100;-71
2021/06/14 09:05:54;;;;;;;3.47;2.87;;;21.50;1.40;;;23.44;50.97;95951.34;646881;212;42195;-72
2021/06/14 09:08:38;;;;;;;4.65;3.10;;;22.00;1.40;;;23.58;47.71;95949.61;645495;216;31849;-72
2021/06/14 09:11:20;;;;;;;5.30;3.53;;;22.20;1.40;;;24.22;49.66;95950.44;616666;222;32011;-71
2021/06/14 09:14:01;;;;;;;5.50;3.00;;;22.80;1.40;;;24.28;45.53;95945.70;619333;222;32213;-71
2021/06/14 09:16:43;;;;;;;4.70;3.40;;;22.80;1.40;;;24.36;44.80;95948.84;617106;226;32351;-71
2021/06/14 09:19:47;;;;;;;5.12;3.40;;;22.60;1.40;;;24.37;45.24;95945.70;646381;216;31707;-72
2021/06/14 09:22:28;;;;;;;5.20;4.20;;;22.90;1.40;;;24.87;46.22;95935.06;649070;216;42273;-71
2021/06/14 09:25:16;;;;;;;3.60;3.15;;;23.20;1.40;;;25.20;44.69;95938.55;644663;216;31726;-72
2021/06/14 09:28:00;;;;;;;4.20;2.75;;;23.80;1.40;;;26.44;44.24;95931.48;645199;212;31986;-70
2021/06/14 09:30:41;;;;;;;4.65;3.08;;;25.60;1.40;;;27.89;40.97;95933.41;649244;216;31820;-72
2021/06/14 09:36:05;;;;;;;4.47;3.30;;;24.10;1.40;;;27.99;42.20;95924.22;647377;216;31646;-73
2021/06/14 09:38:46;;;;;;;3.58;2.50;;;25.70;1.40;;;29.81;39.72;95925.95;644812;216;31651;-72
2021/06/14 09:41:28;;;;;;;4.80;2.83;;;27.00;1.40;;;31.31;35.13;95922.20;647852;216;31901;-72
2021/06/14 09:44:31;;;;;;;4.30;3.05;;;27.80;1.40;;;31.91;34.16;95922.05;646977;216;32450;-72
2021/06/14 09:47:18;;;;;;;4.50;2.62;;;27.40;1.40;;;31.54;35.33;95924.22;647025;212;31695;-72
2021/06/14 09:50:00;;;;;;;3.17;2.87;;;27.20;1.40;;;31.34;33.31;95930.28;645586;212;31583;-72
2021/06/14 09:52:48;;;;;;;4.28;2.60;;;27.00;1.40;;;32.20;33.65;95928.59;649634;216;31704;-72
2021/06/14 09:55:31;;;;;;;4.30;3.10;;;27.00;1.40;;;31.74;31.63;95935.31;648032;216;31615;-72
2021/06/14 09:58:23;;;;;;;3.30;2.50;;;26.40;1.40;;;34.22;34.01;95928.84;649478;212;31645;-72
2021/06/14 10:01:11;;;;;;;4.07;2.70;;;28.10;1.40;;;34.20;29.74;95925.72;649923;212;31581;-73
2021/06/14 10:03:58;;;;;;;2.33;2.10;;;28.10;1.40;;;34.78;29.78;95923.23;620214;222;31940;-72
2021/06/14 10:06:42;;;;;;;3.45;3.00;;;28.10;1.40;;;35.04;28.18;95917.75;645734;212;31715;-72
2021/06/14 10:09:27;;;;;;;3.75;3.05;;;28.30;1.40;;;33.54;29.17;95914.09;647609;216;42465;-73
2021/06/14 10:12:20;;;;;;;3.22;2.60;;;27.00;1.40;;;32.85;30.83;95916.25;645939;216;31724;-72
2021/06/14 10:15:08;;;;;;;4.10;3.20;;;26.90;1.40;;;35.30;31.47;95906.52;639554;213;32354;-72
2021/06/14 10:20:25;;;;;;;4.15;2.72;;;27.40;1.40;;;35.48;31.07;95895.10;620169;222;31935;-73
2021/06/14 10:23:07;;;;;;;5.00;3.28;;;28.10;1.40;;;36.05;29.52;95893.63;645579;216;31673;-72
2021/06/14 10:25:48;;;;;;;4.37;2.80;;;28.50;1.40;;;36.86;30.87;95891.45;644420;216;31775;-73
2021/06/14 10:28:30;;;;;;;4.28;2.90;;;28.70;1.40;;;36.68;27.48;95884.84;645475;216;31572;-72
2021/06/14 10:31:14;;;;;;;3.28;2.80;;;28.30;1.40;;;36.03;28.49;95880.68;648122;216;31575;-73
2021/06/14 10:35:51;;;;;;;3.90;2.70;;;28.00;1.40;;;35.13;29.07;95891.48;646743;212;31731;-72
2021/06/14 10:38:32;;;;;;;4.07;3.42;;;27.90;1.40;;;35.21;29.95;95891.48;650993;212;31708;-73
2021/06/14 10:41:20;;;;;;;3.00;2.70;;;27.90;1.40;;;36.32;29.40;95884.00;646024;212;32140;-73
2021/06/14 10:44:04;;;;;;;3.10;2.80;;;28.20;1.40;;;37.23;27.12;95880.98;647074;216;31783;-72
2021/06/14 10:46:52;;;;;;;3.95;2.58;;;28.60;1.40;;;37.11;27.59;95889.46;646112;216;31599;-72
2021/06/14 10:49:33;;;;;;;3.17;2.80;;;28.20;1.40;;;34.95;28.60;95888.96;646141;216;31558;-73
2021/06/14 10:52:15;;;;;;;5.28;3.00;;;28.10;1.40;;;33.78;29.55;95897.85;648874;216;31625;-74
2021/06/14 10:54:57;;;;;;;3.35;2.50;;;27.30;1.40;;;29.38;32.65;95896.90;647745;212;31619;-71
2021/06/14 10:57:38;;;;;;;3.85;2.70;;;25.30;1.40;;;30.71;32.75;95886.28;647015;216;31678;-71
2021/06/14 11:02:54;;;;;;;3.20;2.53;;;26.30;1.40;;;30.13;33.46;95873.67;648577;212;31578;-72
2021/06/14 11:05:43;;;;;;;4.00;2.70;;;26.50;1.40;;;28.59;34.36;95876.34;622771;222;31962;-72
2021/06/14 11:08:25;;;;;;;4.57;2.92;;;25.80;1.40;;;30.92;31.29;95866.31;647445;216;31561;-72
2021/06/14 11:11:07;;;;;;;3.08;2.65;;;26.80;1.40;;;31.46;31.54;95862.87;647484;212;31558;-72
2021/06/14 11:13:51;;;;;;;3.50;2.50;;;27.30;1.40;;;30.23;32.62;95861.60;646509;212;32241;-72
2021/06/14 11:16:36;;;;;;;3.40;3.10;;;26.80;1.40;;;30.58;30.76;95853.97;644905;212;31566;-71
2021/06/14 11:19:20;;;;;;;3.50;2.40;;;26.60;1.40;;;30.76;33.59;95843.80;617456;222;32076;-71
2021/06/14 11:22:02;;;;;;;3.62;2.90;;;26.90;1.40;;;30.69;33.84;95846.31;649334;212;32125;-71
2021/06/14 11:24:47;;;;;;;4.35;3.20;;;26.90;1.40;;;30.90;31.83;95839.70;647460;212;34013;-71
2021/06/14 11:27:37;;;;;;;4.65;3.00;;;26.70;1.40;;;30.24;34.18;95839.59;646133;212;31602;-71
2021/06/14 11:30:23;;;;;;;3.42;2.58;;;26.80;1.40;;;31.23;32.72;95834.27;649137;212;31561;-70
2021/06/14 11:35:54;;;;;;;4.13;3.03;;;27.00;1.40;;;30.82;32.30;95834.00;618487;222;43498;-71
2021/06/14 11:38:36;;;;;;;4.00;2.40;;;27.30;1.40;;;32.92;30.57;95831.28;618159;226;32452;-72
2021/06/14 11:41:33;;;;;;;5.18;2.70;;;28.30;1.40;;;32.12;27.90;95825.54;648964;216;31725;-71
2021/06/14 11:44:23;;;;;;;4.50;2.80;;;26.80;1.40;;;34.34;27.48;95815.94;646310;216;42769;-72
2021/06/14 11:47:15;;;;;;;5.70;3.08;;;28.00;1.40;;;36.64;27.54;95809.48;647644;212;31807;-72
2021/06/14 11:49:59;;;;;;;4.40;2.53;;;28.90;1.40;;;37.70;24.71;95809.14;646825;216;31756;-71
2021/06/14 11:52:41;;;;;;;3.20;2.30;;;29.10;1.40;;;36.57;25.14;95803.77;646698;212;31589;-71
2021/06/14 11:55:22;;;;;;;3.05;2.12;;;28.80;1.40;;;36.71;24.35;95799.18;648361;216;31559;-70
2021/06/14 11:58:14;;;;;;;4.03;2.50;;;28.20;1.40;;;34.17;27.70;95788.64;646766;216;31762;-72
2021/06/14 12:01:00;;;;;;;4.80;2.70;;;27.70;1.40;;;36.82;24.01;95786.95;645824;216;31596;-72
2021/06/14 12:03:42;;;;;;;4.97;2.20;;;28.80;1.40;;;38.88;23.94;95789.71;646111;216;31741;-72
2021/06/14 12:06:25;;;;;;;2.62;2.42;;;29.40;1.40;;;37.87;23.95;95782.27;649026;212;31597;-74
2021/06/14 12:09:08;;;;;;;2.55;2.35;;;28.80;1.40;;;37.70;25.19;95774.66;652681;216;31672;-72
2021/06/14 12:12:00;;;;;;;5.25;2.40;;;28.90;1.40;;;36.58;25.01;95773.94;647767;216;31642;-72
2021/06/14 12:14:43;;;;;;;2.50;2.30;;;28.60;1.40;;;38.13;23.38;95775.05;643767;216;32586;-73
2021/06/14 12:17:30;;;;;;;2.85;2.20;;;29.20;1.40;;;39.31;24.19;95766.50;621053;226;31929;-71